»·PEaware :: DAL1194 KSLC-KPDX

DAL1194 :: KSLC-KPDX

FLIGHT INFORMATION

Flight Status: Arrived
Operator:
Delta Air Lines
More flights by this operator :: More flights under this callsign
Pilot: Joe P. (13940)
Aircraft: BOEING 737-700
(B737)
More flights by this aircraft type
Origin: KSLC Salt Lake City Intl
United States
Destination: KPDX Portland Intl
United States
More flights between these airports :: More routes between these airports
Route: +CGULL1 TWF J15 BOI J163 BKE JOTBA HHOOD4
File this flight plan on PilotEdge
Remarks: KSEA -PBN / A1B1C1D1L1O1S1 NAV / RNVD1E2A1 DOF / 180817 REG / N389DA EET / KZSE0054 RVR / 200 PER / C
Altitude:
(Current/Filed)
340ft
Speed:
(Current/Filed)
458kts
Departed: 17-Aug-18 12:49 PM
Arrived: 17-Aug-18 02:15 PM
Distance/Time
Traveled:
546nm/1:26
Distance/Time
To Go:
Arrived

Flight Plot

Page will automatically refresh every two minutes.

Flight plan parsing failed; only flown route is shown


Map Options




Map Legend


Flown Route
Filed Route
Departure Airport
Arrival Airport
Navaid (VOR, NDB)
Fix

Horizontal Profiles

Position Reports

Time Latitude Longitude Heading Altitude Ground
Speed
17-Aug-18 11:50 40.789075 -111.985536 130 4235ft 0kts
17-Aug-18 11:51 40.789075 -111.985536 130 4235ft 0kts
17-Aug-18 11:52 40.789075 -111.985536 130 4235ft 0kts
17-Aug-18 11:53 40.789075 -111.985536 130 4235ft 0kts
17-Aug-18 11:54 40.789075 -111.985536 130 4235ft 0kts
17-Aug-18 11:55 40.789075 -111.985536 130 4235ft 0kts
17-Aug-18 11:56 40.789075 -111.985536 130 4235ft 0kts
17-Aug-18 11:57 40.789075 -111.985536 130 4235ft 0kts
17-Aug-18 11:58 40.789075 -111.985536 130 4235ft 0kts
17-Aug-18 11:59 40.789075 -111.985536 130 4235ft 0kts
17-Aug-18 12:00 40.789075 -111.985536 130 4235ft 0kts
17-Aug-18 12:01 40.789075 -111.985536 130 4235ft 0kts
17-Aug-18 12:02 40.789075 -111.985536 130 4235ft 0kts
17-Aug-18 12:03 40.789075 -111.985536 130 4235ft 0kts
17-Aug-18 12:04 40.789075 -111.985536 130 4235ft 0kts
17-Aug-18 12:05 40.789075 -111.985536 130 4235ft 0kts
17-Aug-18 12:06 40.789075 -111.985536 130 4235ft 0kts
17-Aug-18 12:07 40.789075 -111.985536 130 4235ft 0kts
17-Aug-18 12:08 40.789075 -111.985536 130 4235ft 0kts
17-Aug-18 12:09 40.789075 -111.985536 130 4235ft 0kts
17-Aug-18 12:10 40.789075 -111.985536 130 4235ft 0kts
17-Aug-18 12:11 40.789075 -111.985536 130 4235ft 0kts
17-Aug-18 12:12 40.789075 -111.985536 130 4235ft 0kts
17-Aug-18 12:13 40.789075 -111.985536 130 4235ft 0kts
17-Aug-18 12:14 40.789075 -111.985536 130 4235ft 0kts
17-Aug-18 12:15 40.789075 -111.985536 130 4235ft 0kts
17-Aug-18 12:16 40.789075 -111.985536 130 4235ft 0kts
17-Aug-18 12:17 40.789075 -111.985536 130 4235ft 0kts
17-Aug-18 12:18 40.789075 -111.985536 130 4235ft 0kts
17-Aug-18 12:19 40.789075 -111.985536 130 4235ft 0kts
17-Aug-18 12:20 40.789075 -111.985536 130 4235ft 0kts
17-Aug-18 12:21 40.789075 -111.985536 130 4235ft 0kts
17-Aug-18 12:22 40.789075 -111.985536 130 4235ft 0kts
17-Aug-18 12:23 40.789075 -111.985536 130 4235ft 0kts
17-Aug-18 12:24 40.789075 -111.985536 130 4235ft 0kts
17-Aug-18 12:25 40.789075 -111.985536 130 4235ft 0kts
17-Aug-18 12:26 40.789075 -111.985536 130 4235ft 0kts
17-Aug-18 12:27 40.789075 -111.985536 130 4235ft 0kts
17-Aug-18 12:28 40.789075 -111.985536 130 4235ft 0kts
17-Aug-18 12:29 40.789081 -111.985545 130 4235ft 0kts
17-Aug-18 12:30 40.789536 -111.986094 159 4235ft 2kts
17-Aug-18 12:31 40.789898 -111.985774 238 4235ft 0kts
17-Aug-18 12:32 40.789898 -111.985774 238 4235ft 0kts
17-Aug-18 12:33 40.789898 -111.985774 238 4235ft 0kts
17-Aug-18 12:34 40.789898 -111.985774 238 4235ft 0kts
17-Aug-18 12:35 40.789898 -111.985774 238 4235ft 0kts
17-Aug-18 12:36 40.789898 -111.985774 238 4235ft 0kts
17-Aug-18 12:37 40.789898 -111.985774 238 4235ft 0kts
17-Aug-18 12:38 40.789898 -111.985774 238 4235ft 0kts
17-Aug-18 12:39 40.789898 -111.985774 238 4235ft 0kts
17-Aug-18 12:40 40.789305 -111.987072 239 4234ft 11kts
17-Aug-18 12:41 40.788921 -111.987926 239 4234ft 0kts
17-Aug-18 12:42 40.788907 -111.987955 236 4234ft 1kts
17-Aug-18 12:43 40.787727 -111.991374 264 4235ft 10kts
17-Aug-18 12:44 40.787585 -111.993505 261 4234ft 6kts
17-Aug-18 12:45 40.784721 -111.994482 174 4234ft 16kts
17-Aug-18 12:46 40.779167 -111.994261 177 4235ft 22kts
17-Aug-18 12:47 40.775390 -111.994119 237 4234ft 0kts
17-Aug-18 12:48 40.775389 -111.994121 237 4234ft 0kts
17-Aug-18 12:49 40.775662 -111.995651 349 4234ft 0kts
17-Aug-18 12:50 40.796521 -111.997931 356 4303ft 176kts
17-Aug-18 12:51 40.844401 -112.016532 332 6720ft 206kts
17-Aug-18 12:52 40.903063 -112.062545 316 8080ft 269kts
17-Aug-18 12:53 40.955938 -112.140232 311 10385ft 300kts
17-Aug-18 12:54 41.016559 -112.230514 311 11979ft 359kts
17-Aug-18 12:55 41.084446 -112.332014 310 14513ft 375kts
17-Aug-18 12:56 41.154760 -112.437739 309 16987ft 388kts
17-Aug-18 12:57 41.227176 -112.546920 309 19229ft 400kts
17-Aug-18 12:58 41.301962 -112.659815 309 21154ft 414kts
17-Aug-18 12:59 41.379106 -112.776611 308 22873ft 426kts
17-Aug-18 13:00 41.458298 -112.896982 308 24423ft 437kts
17-Aug-18 13:01 41.538929 -113.020061 307 25899ft 444kts
17-Aug-18 13:02 41.620664 -113.145357 307 27275ft 452kts
17-Aug-18 13:03 41.703654 -113.273162 306 28525ft 458kts
17-Aug-18 13:04 41.787397 -113.402728 306 30016ft 455kts
17-Aug-18 13:05 41.869227 -113.530343 305 31698ft 448kts
17-Aug-18 13:06 41.949786 -113.656405 304 33319ft 440kts
17-Aug-18 13:07 42.029122 -113.781051 303 34214ft 441kts
17-Aug-18 13:08 42.108283 -113.906093 303 34223ft 436kts
17-Aug-18 13:09 42.186370 -114.031122 303 34225ft 436kts
17-Aug-18 13:10 42.264276 -114.157016 303 34228ft 437kts
17-Aug-18 13:11 42.347410 -114.278275 305 34233ft 439kts
17-Aug-18 13:12 42.426392 -114.403734 303 34238ft 439kts
17-Aug-18 13:13 42.506017 -114.530065 304 34240ft 441kts
17-Aug-18 13:14 42.587093 -114.655587 304 34249ft 443kts
17-Aug-18 13:15 42.668728 -114.782756 304 34241ft 452kts
17-Aug-18 13:16 42.749970 -114.909283 304 34250ft 444kts
17-Aug-18 13:17 42.831887 -115.037193 304 34225ft 445kts
17-Aug-18 13:18 42.913375 -115.165370 304 34242ft 447kts
17-Aug-18 13:19 42.994489 -115.293605 304 34229ft 448kts
17-Aug-18 13:20 43.076053 -115.423129 304 34212ft 449kts
17-Aug-18 13:21 43.157331 -115.552785 304 34201ft 450kts
17-Aug-18 13:22 43.239077 -115.683768 304 34198ft 453kts
17-Aug-18 13:23 43.294106 -115.831239 277 34195ft 431kts
17-Aug-18 13:24 43.329827 -115.989075 292 34186ft 444kts
17-Aug-18 13:25 43.393407 -116.136504 295 34174ft 448kts
17-Aug-18 13:26 43.457132 -116.283567 294 34160ft 448kts
17-Aug-18 13:27 43.520787 -116.431235 295 34149ft 449kts
17-Aug-18 13:28 43.574585 -116.554135 295 34140ft 449kts
17-Aug-18 13:29 43.648964 -116.726602 294 34140ft 448kts
17-Aug-18 13:30 43.712437 -116.875164 294 34140ft 447kts
17-Aug-18 13:31 43.775557 -117.023781 294 34138ft 448kts
17-Aug-18 13:32 43.838265 -117.172326 294 34135ft 448kts
17-Aug-18 13:33 43.890612 -117.296914 294 34136ft 448kts
17-Aug-18 13:34 43.953292 -117.446797 294 34141ft 449kts
17-Aug-18 13:35 44.015684 -117.596771 294 34150ft 450kts
17-Aug-18 13:36 44.088505 -117.772797 294 34177ft 450kts
17-Aug-18 13:37 44.140525 -117.899204 294 34192ft 449kts
17-Aug-18 13:38 44.202262 -118.049951 294 34210ft 450kts
17-Aug-18 13:39 44.263998 -118.201487 294 34221ft 449kts
17-Aug-18 13:40 44.325567 -118.353337 294 34229ft 449kts
17-Aug-18 13:41 44.386932 -118.505602 295 34237ft 449kts
17-Aug-18 13:42 44.448249 -118.658508 295 34238ft 450kts
17-Aug-18 13:43 44.509251 -118.811398 295 34244ft 450kts
17-Aug-18 13:44 44.570034 -118.964520 296 34237ft 449kts
17-Aug-18 13:45 44.630677 -119.118074 296 34232ft 449kts
17-Aug-18 13:46 44.691001 -119.271598 296 34223ft 448kts
17-Aug-18 13:47 44.751050 -119.425175 296 34217ft 448kts
17-Aug-18 13:48 44.811001 -119.578636 296 34206ft 447kts
17-Aug-18 13:49 44.870631 -119.732369 296 34196ft 447kts
17-Aug-18 13:50 44.930251 -119.887041 297 33700ft 446kts
17-Aug-18 13:51 44.989442 -120.041223 297 30934ft 444kts
17-Aug-18 13:52 45.045870 -120.192948 296 28781ft 429kts
17-Aug-18 13:53 45.099920 -120.340854 297 26696ft 417kts
17-Aug-18 13:54 45.153447 -120.484130 297 24666ft 406kts
17-Aug-18 13:55 45.206368 -120.622387 297 22927ft 391kts
17-Aug-18 13:56 45.258686 -120.757298 297 21279ft 386kts
17-Aug-18 13:57 45.309447 -120.889645 297 19672ft 378kts
17-Aug-18 13:58 45.358634 -121.019185 297 18106ft 369kts
17-Aug-18 13:59 45.406932 -121.146347 297 16478ft 359kts
17-Aug-18 14:00 45.443757 -121.275949 284 14801ft 350kts
17-Aug-18 14:01 45.468846 -121.406986 285 13362ft 334kts
17-Aug-18 14:02 45.493480 -121.530739 285 12012ft 309kts
17-Aug-18 14:03 45.515528 -121.643430 285 10804ft 286kts
17-Aug-18 14:04 45.531765 -121.753328 274 9638ft 282kts
17-Aug-18 14:05 45.534972 -121.862296 274 8897ft 258kts
17-Aug-18 14:06 45.538182 -121.956641 275 8563ft 217kts
17-Aug-18 14:07 45.540592 -122.039843 256 7564ft 211kts
17-Aug-18 14:08 45.508282 -122.109905 235 6495ft 210kts
17-Aug-18 14:09 45.471841 -122.182967 245 4670ft 242kts
17-Aug-18 14:10 45.469437 -122.269698 293 4012ft 207kts
17-Aug-18 14:11 45.494891 -122.339602 298 3556ft 191kts
17-Aug-18 14:12 45.518942 -122.401289 298 2636ft 158kts
17-Aug-18 14:13 45.539001 -122.452622 299 1827ft 145kts
17-Aug-18 14:14 45.558817 -122.503359 299 1056ft 145kts
17-Aug-18 14:15 45.578089 -122.552808 300 275ft 144kts
17-Aug-18 14:16 45.593194 -122.591240 298 26ft 36kts
17-Aug-18 14:17 45.594266 -122.595484 223 26ft 0kts
17-Aug-18 14:18 45.594039 -122.595797 224 26ft 9kts
17-Aug-18 14:19 45.592849 -122.597259 209 26ft 4kts
17-Aug-18 14:20 45.591807 -122.598179 209 26ft 6kts
17-Aug-18 14:21 45.590223 -122.595853 119 26ft 13kts
17-Aug-18 14:22 45.590213 -122.594079 31 26ft 0kts
17-Aug-18 14:23 45.590213 -122.594079 31 26ft 0kts
17-Aug-18 14:24 45.590213 -122.594079 31 26ft 0kts
17-Aug-18 14:25 45.590213 -122.594079 31 26ft 0kts
17-Aug-18 14:26 45.590213 -122.594079 31 26ft 0kts
17-Aug-18 14:27 45.590213 -122.594079 31 26ft 0kts
17-Aug-18 14:28 45.590213 -122.594079 31 26ft 0kts
17-Aug-18 14:29 45.590213 -122.594079 31 26ft 0kts
17-Aug-18 14:30 45.590213 -122.594079 31 26ft 0kts

Navigation Log

Ident Type
Flight plan parsing failed, navigation log unavailable